This is the latest recevied weather packets stored in our database for station/object W8RD. If no packets are shown the sender has not sent any weather packets the latest 1 day(s).
| Time | Temp. | Humidity | Pressure | Rain* | Wind** | Luminosity | Snow |
|---|---|---|---|---|---|---|---|
| 1778019665 | 26.67° C | 69% | 1016 hPa | 0 mm | 0 m/s | 87 W/m² | - |
| 1778019064 | 27.22° C | 67% | 1015.8 hPa | 0 mm | 0.45 m/s, 298° | 72 W/m² | - |
| 1778018460 | 27.22° C | 66% | 1016 hPa | 0 mm | 0 m/s | 190 W/m² | - |
| 1778017855 | 27.22° C | 67% | 1015.9 hPa | 0 mm | 0 m/s | 100 W/m² | - |
| 1778017255 | 28.89° C | 62% | 1015.8 hPa | 0 mm | 0.89 m/s, 282° | 109 W/m² | - |
| 1778016655 | 28.89° C | 63% | 1016.1 hPa | 0 mm | 0 m/s | 322 W/m² | - |
| 1778016065 | 28.89° C | 62% | 1016 hPa | 0 mm | 0 m/s | 312 W/m² | - |
| 1778015455 | 28.89° C | 62% | 1016.1 hPa | 0 mm | 0 m/s | 315 W/m² | - |
| 1778014855 | 28.89° C | 63% | 1015.7 hPa | 0 mm | 0 m/s | 400 W/m² | - |
| 1778014249 | 28.89° C | 61% | 1015.8 hPa | 0 mm | 1.34 m/s, 293° | 400 W/m² | - |
| 1778013644 | 29.44° C | 59% | 1015.8 hPa | 0 mm | 0.45 m/s, 316° | 434 W/m² | - |
| 1778013043 | 29.44° C | 60% | 1015.8 hPa | 0 mm | 0.45 m/s, 307° | 363 W/m² | - |
| 1778012441 | 28.89° C | 61% | 1016 hPa | 0 mm | 0.89 m/s, 286° | 401 W/m² | - |
| 1778011836 | 28.89° C | 60% | 1016 hPa | 0 mm | 0.45 m/s, 286° | 528 W/m² | - |
| 1778011230 | 28.89° C | 61% | 1016.2 hPa | 0 mm | 0 m/s | 404 W/m² | - |
| 1778010629 | 29.44° C | 59% | 1016 hPa | 0 mm | 0 m/s | 576 W/m² | - |
| 1778010027 | 29.44° C | 59% | 1016.4 hPa | 0 mm | 0.45 m/s, 305° | 501 W/m² | - |
| 1778009422 | 30° C | 56% | 1016.3 hPa | 0 mm | 0.45 m/s, 295° | 550 W/m² | - |
| 1778008818 | 30° C | 56% | 1016.3 hPa | 0 mm | 0.45 m/s, 299° | 716 W/m² | - |
| 1778008214 | 30° C | 56% | 1016.3 hPa | 0 mm | 0.45 m/s, 314° | 659 W/m² | - |
| 1778007610 | 31.11° C | 52% | 1016.4 hPa | 0 mm | 0.89 m/s, 289° | 789 W/m² | - |
| 1778007009 | 30.56° C | 55% | 1016.3 hPa | 0 mm | 0.45 m/s, 250° | 828 W/m² | - |
| 1778006409 | 31.11° C | 52% | 1016.5 hPa | 0 mm | 1.34 m/s, 242° | 823 W/m² | - |
| 1778005809 | 30.56° C | 56% | 1016.5 hPa | 0 mm | 0.45 m/s, 298° | 775 W/m² | - |
| 1778005208 | 30° C | 56% | 1016.7 hPa | 0 mm | 0.89 m/s, 287° | 855 W/m² | - |
* Rain latest hour (hover to see other rain measurements)
** Current wind speed in m/s (hover to see current wind gust speed)